createdAt,value
2018-04-22T00:00:29.219Z,99.99
2018-04-22T00:01:29.205Z,99.99
2018-04-22T00:02:29.433Z,99.99
2018-04-22T00:03:29.430Z,99.99
2018-04-22T00:04:29.213Z,99.99
2018-04-22T00:05:29.215Z,99.99
2018-04-22T00:06:29.222Z,99.99
2018-04-22T00:07:29.403Z,99.99
2018-04-22T00:08:29.217Z,99.99
2018-04-22T00:09:29.414Z,99.99
2018-04-22T00:10:29.217Z,99.99
2018-04-22T00:11:29.207Z,99.99
2018-04-22T00:12:29.221Z,99.99
2018-04-22T00:13:29.208Z,99.99
2018-04-22T00:14:29.399Z,99.99
2018-04-22T00:15:29.405Z,99.99
2018-04-22T00:16:29.396Z,99.99
2018-04-22T00:17:29.193Z,99.99
2018-04-22T00:18:29.204Z,99.99
2018-04-22T00:19:29.201Z,99.99
2018-04-22T00:20:29.191Z,99.99
2018-04-22T00:21:29.198Z,99.99
2018-04-22T00:22:29.405Z,99.99
2018-04-22T00:23:29.197Z,99.99
2018-04-22T00:24:29.200Z,99.99
2018-04-22T00:25:29.187Z,99.99
2018-04-22T00:26:29.399Z,99.99
2018-04-22T00:27:29.195Z,99.99
2018-04-22T00:28:29.197Z,99.99
2018-04-22T00:29:29.197Z,99.99
2018-04-22T00:30:29.203Z,99.99
2018-04-22T00:31:29.178Z,99.99
2018-04-22T00:32:29.194Z,99.99
2018-04-22T00:33:29.191Z,99.99
2018-04-22T00:34:29.189Z,99.99
2018-04-22T00:35:29.391Z,99.99
2018-04-22T00:36:29.177Z,99.99
2018-04-22T00:37:29.186Z,99.99
2018-04-22T00:38:29.183Z,99.99
2018-04-22T00:39:29.174Z,99.99
2018-04-22T00:40:29.185Z,99.99
2018-04-22T00:41:29.189Z,99.99
2018-04-22T00:42:29.384Z,99.99
2018-04-22T00:43:29.414Z,99.99
2018-04-22T00:44:29.173Z,99.99
2018-04-22T00:45:29.382Z,99.99
2018-04-22T00:46:29.370Z,99.99
2018-04-22T00:47:29.186Z,99.99
2018-04-22T00:48:29.369Z,99.99
2018-04-22T00:49:29.381Z,99.99
2018-04-22T00:50:29.162Z,99.99
2018-04-22T00:51:29.180Z,99.99
2018-04-22T00:52:29.164Z,99.99
2018-04-22T00:53:29.164Z,99.99
2018-04-22T00:54:29.171Z,99.99
2018-04-22T00:55:29.159Z,99.99
2018-04-22T00:56:29.187Z,99.99
2018-04-22T00:57:29.170Z,99.99
2018-04-22T00:58:29.175Z,99.99
2018-04-22T00:59:29.364Z,99.99
2018-04-22T01:00:29.370Z,99.99
2018-04-22T01:01:29.356Z,99.99
2018-04-22T01:02:29.152Z,99.99
2018-04-22T01:03:29.364Z,99.99
2018-04-22T01:04:29.357Z,99.99
2018-04-22T01:05:29.148Z,99.99
2018-04-22T01:06:29.350Z,99.99
2018-04-22T01:07:29.157Z,99.99
2018-04-22T01:08:29.382Z,99.99
2018-04-22T01:09:29.146Z,99.99
2018-04-22T01:10:29.144Z,99.99
2018-04-22T01:11:29.347Z,99.99
2018-04-22T01:12:29.157Z,99.99
2018-04-22T01:13:29.139Z,99.99
2018-04-22T01:14:29.342Z,99.99
2018-04-22T01:15:29.137Z,99.99
2018-04-22T01:16:29.148Z,99.99
2018-04-22T01:17:29.144Z,99.99
2018-04-22T01:18:29.336Z,99.99
2018-04-22T01:19:29.347Z,99.99
2018-04-22T01:20:29.132Z,99.99
2018-04-22T01:21:29.142Z,99.99
2018-04-22T01:22:29.335Z,99.99
2018-04-22T01:23:29.333Z,99.99
2018-04-22T01:24:29.139Z,99.99
2018-04-22T01:25:29.129Z,99.99
2018-04-22T01:26:29.144Z,99.99
2018-04-22T01:27:29.143Z,99.99
2018-04-22T01:28:29.137Z,99.99
2018-04-22T01:29:29.126Z,99.99
2018-04-22T01:30:29.353Z,99.99
2018-04-22T01:31:29.147Z,99.99
2018-04-22T01:32:29.152Z,99.99
2018-04-22T01:33:29.136Z,99.99
2018-04-22T01:34:29.124Z,99.99
2018-04-22T01:35:29.130Z,99.99
2018-04-22T01:36:29.124Z,99.99
2018-04-22T01:37:29.344Z,99.99
2018-04-22T01:38:29.128Z,99.99
2018-04-22T01:39:29.118Z,99.99
2018-04-22T01:40:29.336Z,99.99
2018-04-22T01:41:29.117Z,99.99
2018-04-22T01:42:29.117Z,99.99
2018-04-22T01:43:29.121Z,99.99
2018-04-22T01:44:29.124Z,99.99
2018-04-22T01:45:29.325Z,99.99
2018-04-22T01:46:29.121Z,99.99
2018-04-22T01:47:29.115Z,99.99
2018-04-22T01:48:29.124Z,99.99
2018-04-22T01:49:29.111Z,99.99
2018-04-22T01:50:29.121Z,99.99
2018-04-22T01:51:29.110Z,99.99
2018-04-22T01:52:29.108Z,99.99
2018-04-22T01:53:29.119Z,99.99
2018-04-22T01:54:29.103Z,99.99
2018-04-22T01:55:29.315Z,99.99
2018-04-22T01:56:29.106Z,99.99
2018-04-22T01:57:29.099Z,99.99
2018-04-22T01:58:29.114Z,99.99
2018-04-22T01:59:29.303Z,99.99
2018-04-22T02:00:29.297Z,99.99
2018-04-22T02:01:29.093Z,99.99
2018-04-22T02:02:29.092Z,99.99
2018-04-22T02:03:29.091Z,99.99
2018-04-22T02:04:29.099Z,99.99
2018-04-22T02:05:29.116Z,99.99
2018-04-22T02:06:29.086Z,99.99
2018-04-22T02:07:29.086Z,99.99
2018-04-22T02:08:29.084Z,99.99
2018-04-22T02:09:29.103Z,99.99
2018-04-22T02:10:29.081Z,99.99
2018-04-22T02:11:29.090Z,99.99
2018-04-22T02:12:29.283Z,99.99
2018-04-22T02:13:29.080Z,99.99
2018-04-22T02:14:29.074Z,99.99
2018-04-22T02:15:29.074Z,99.99
2018-04-22T02:16:29.086Z,99.99
2018-04-22T02:17:29.095Z,99.99
2018-04-22T02:18:29.333Z,99.99
2018-04-22T02:19:29.081Z,99.99
2018-04-22T02:20:29.283Z,99.99
2018-04-22T02:21:29.074Z,99.99
2018-04-22T02:22:29.068Z,99.99
2018-04-22T02:23:29.520Z,99.99
2018-04-22T02:24:29.090Z,99.99
2018-04-22T02:25:29.061Z,99.99
2018-04-22T02:26:29.063Z,99.99
2018-04-22T02:27:29.074Z,99.99
2018-04-22T02:28:29.082Z,99.99
2018-04-22T02:29:29.072Z,99.99
2018-04-22T02:30:29.054Z,99.99
2018-04-22T02:31:29.257Z,99.99
2018-04-22T02:32:29.051Z,99.99
2018-04-22T02:33:29.067Z,99.99
2018-04-22T02:34:29.250Z,99.99
2018-04-22T02:35:29.258Z,99.99
2018-04-22T02:36:29.047Z,99.99
2018-04-22T02:37:29.047Z,99.99
2018-04-22T02:38:29.044Z,99.99
2018-04-22T02:39:29.248Z,99.99
2018-04-22T02:40:29.251Z,99.99
2018-04-22T02:41:29.077Z,99.99
2018-04-22T02:42:29.039Z,99.99
2018-04-22T02:43:29.076Z,99.99
2018-04-22T02:44:29.047Z,99.99
2018-04-22T02:45:29.040Z,99.99
2018-04-22T02:46:29.234Z,99.99
2018-04-22T02:47:29.031Z,99.99
2018-04-22T02:48:29.047Z,99.99
2018-04-22T02:49:29.029Z,99.99
2018-04-22T02:50:29.093Z,99.99
2018-04-22T02:51:29.022Z,99.99
2018-04-22T02:52:29.223Z,99.99
2018-04-22T02:53:29.030Z,99.99
2018-04-22T02:54:29.022Z,99.99
2018-04-22T02:55:29.221Z,99.99
2018-04-22T02:56:29.041Z,99.99
2018-04-22T02:57:29.216Z,99.99
2018-04-22T02:58:29.027Z,99.99
2018-04-22T02:59:29.021Z,99.99
2018-04-22T03:00:29.020Z,99.99
2018-04-22T03:01:29.005Z,99.99
2018-04-22T03:02:29.005Z,99.99
2018-04-22T03:03:29.218Z,99.99
2018-04-22T03:04:29.001Z,99.99
2018-04-22T03:05:29.206Z,99.99
2018-04-22T03:06:29.000Z,99.99
2018-04-22T03:07:29.022Z,99.99
2018-04-22T03:08:29.005Z,99.99
2018-04-22T03:09:28.994Z,99.99
2018-04-22T03:10:28.993Z,99.99
2018-04-22T03:11:28.990Z,99.99
2018-04-22T03:12:28.989Z,99.99
2018-04-22T03:13:28.996Z,99.99
2018-04-22T03:14:28.988Z,99.99
2018-04-22T03:15:28.990Z,99.99
2018-04-22T03:16:28.991Z,99.99
2018-04-22T03:17:29.190Z,99.99
2018-04-22T03:18:29.204Z,99.99
2018-04-22T03:19:28.994Z,99.99
2018-04-22T03:20:28.987Z,99.99
2018-04-22T03:21:28.977Z,99.99
2018-04-22T03:22:29.179Z,99.99
2018-04-22T03:23:29.180Z,99.99
2018-04-22T03:24:29.180Z,99.99
2018-04-22T03:25:28.981Z,99.99
2018-04-22T03:26:29.189Z,99.99
2018-04-22T03:27:28.982Z,99.99
2018-04-22T03:28:28.965Z,99.99
2018-04-22T03:29:28.964Z,99.99
2018-04-22T03:30:28.979Z,99.99
2018-04-22T03:31:29.173Z,99.99
2018-04-22T03:32:28.964Z,99.99
2018-04-22T03:33:29.181Z,99.99
2018-04-22T03:34:28.964Z,99.99
2018-04-22T03:35:28.969Z,99.99
2018-04-22T03:36:28.965Z,99.99
2018-04-22T03:37:29.157Z,99.99
2018-04-22T03:38:28.948Z,99.99
2018-04-22T03:39:28.945Z,99.99
2018-04-22T03:40:28.960Z,99.99
2018-04-22T03:41:28.944Z,99.99
2018-04-22T03:42:29.015Z,99.99
2018-04-22T03:43:29.147Z,99.99
2018-04-22T03:44:28.962Z,99.99
2018-04-22T03:45:28.936Z,99.99
2018-04-22T03:46:29.165Z,99.99
2018-04-22T03:47:28.930Z,99.99
2018-04-22T03:48:28.951Z,99.99
2018-04-22T03:49:29.166Z,99.99
2018-04-22T03:50:28.925Z,99.99
2018-04-22T03:51:28.938Z,99.99
2018-04-22T03:52:29.141Z,99.99
2018-04-22T03:53:28.926Z,99.99
2018-04-22T03:54:28.933Z,99.99
2018-04-22T03:55:28.946Z,99.99
2018-04-22T03:56:28.918Z,99.99
2018-04-22T03:57:28.924Z,99.99
2018-04-22T03:58:28.916Z,99.99
2018-04-22T03:59:28.924Z,99.99
2018-04-22T04:00:29.128Z,99.99
2018-04-22T04:01:28.924Z,99.99
2018-04-22T04:02:29.123Z,99.99
2018-04-22T04:03:29.133Z,99.99
2018-04-22T04:04:28.906Z,99.99
2018-04-22T04:05:28.917Z,99.99
2018-04-22T04:06:29.118Z,99.99
2018-04-22T04:07:28.905Z,99.99
2018-04-22T04:08:28.914Z,99.99
2018-04-22T04:09:29.104Z,99.99
2018-04-22T04:10:28.902Z,99.99
2018-04-22T04:11:29.108Z,99.99
2018-04-22T04:12:28.901Z,99.99
2018-04-22T04:13:28.891Z,99.99
2018-04-22T04:14:28.900Z,99.99
2018-04-22T04:15:28.896Z,99.99
2018-04-22T04:16:28.882Z,99.99
2018-04-22T04:17:28.883Z,99.99
2018-04-22T04:18:29.089Z,99.99
2018-04-22T04:19:28.891Z,99.99
2018-04-22T04:20:29.096Z,99.99
2018-04-22T04:21:28.886Z,99.99
2018-04-22T04:22:28.870Z,99.99
2018-04-22T04:23:28.894Z,99.99
2018-04-22T04:24:29.090Z,99.99
2018-04-22T04:25:28.867Z,99.99
2018-04-22T04:26:28.866Z,99.99
2018-04-22T04:27:29.088Z,99.99
2018-04-22T04:28:28.887Z,99.99
2018-04-22T04:29:28.873Z,99.99
2018-04-22T04:30:28.856Z,99.99
2018-04-22T04:31:28.882Z,99.99
2018-04-22T04:32:28.853Z,99.99
2018-04-22T04:33:28.863Z,99.99
2018-04-22T04:34:29.075Z,99.99
2018-04-22T04:35:28.858Z,99.99
2018-04-22T04:36:29.060Z,99.99
2018-04-22T04:37:28.871Z,99.99
2018-04-22T04:38:28.842Z,99.99
2018-04-22T04:39:28.841Z,99.99
2018-04-22T04:40:28.849Z,99.99
2018-04-22T04:41:29.042Z,99.99
2018-04-22T04:42:29.066Z,99.99
2018-04-22T04:43:28.871Z,99.99
2018-04-22T04:44:28.844Z,99.99
2018-04-22T04:45:28.841Z,99.99
2018-04-22T04:46:29.058Z,99.99
2018-04-22T04:47:28.842Z,99.99
2018-04-22T04:48:28.853Z,99.99
2018-04-22T04:49:28.847Z,99.99
2018-04-22T04:50:29.049Z,99.99
2018-04-22T04:51:28.839Z,99.99
2018-04-22T04:52:29.033Z,99.99
2018-04-22T04:53:28.845Z,99.99
2018-04-22T04:54:28.839Z,99.99
2018-04-22T04:55:28.812Z,99.99
2018-04-22T04:56:28.838Z,99.99
2018-04-22T04:57:29.013Z,99.99
2018-04-22T04:58:28.825Z,99.99
2018-04-22T04:59:28.814Z,99.99
2018-04-22T05:00:29.006Z,99.99
2018-04-22T05:01:28.827Z,99.99
2018-04-22T05:02:28.811Z,99.99
2018-04-22T05:03:28.806Z,99.99
2018-04-22T05:04:28.820Z,99.99
2018-04-22T05:05:28.816Z,99.99
2018-04-22T05:06:28.813Z,99.99
2018-04-22T05:07:28.787Z,99.99
2018-04-22T05:08:28.787Z,99.99
2018-04-22T05:09:28.799Z,99.99
2018-04-22T05:10:29.000Z,99.99
2018-04-22T05:11:28.783Z,99.99
2018-04-22T05:12:28.776Z,99.99
2018-04-22T05:13:28.791Z,99.99
2018-04-22T05:14:28.778Z,99.99
2018-04-22T05:15:28.772Z,99.99
2018-04-22T05:16:28.814Z,99.99
2018-04-22T05:17:28.781Z,99.99
2018-04-22T05:18:28.794Z,99.99
2018-04-22T05:19:28.794Z,99.99
2018-04-22T05:20:28.776Z,99.99
2018-04-22T05:21:28.789Z,99.99
2018-04-22T05:22:28.762Z,99.99
2018-04-22T05:23:28.784Z,99.99
2018-04-22T05:24:28.778Z,99.99
2018-04-22T05:25:28.781Z,99.99
2018-04-22T05:26:28.776Z,99.99
2018-04-22T05:27:28.956Z,99.99
2018-04-22T05:28:28.755Z,99.99
2018-04-22T05:29:28.762Z,99.99
2018-04-22T05:30:28.759Z,99.99
2018-04-22T05:31:28.757Z,99.99
2018-04-22T05:32:28.961Z,99.99
2018-04-22T05:33:28.768Z,99.99
2018-04-22T05:34:28.958Z,99.99
2018-04-22T05:35:28.753Z,99.99
2018-04-22T05:36:28.970Z,99.99
2018-04-22T05:37:28.941Z,99.99
2018-04-22T05:38:28.745Z,99.99
2018-04-22T05:39:28.761Z,99.99
2018-04-22T05:40:28.746Z,99.99
2018-04-22T05:41:28.747Z,99.99
2018-04-22T05:42:28.739Z,99.99
2018-04-22T05:43:28.730Z,99.99
2018-04-22T05:44:28.740Z,99.99
2018-04-22T05:45:28.736Z,99.99
2018-04-22T05:46:28.749Z,99.99
2018-04-22T05:47:28.724Z,99.99
2018-04-22T05:48:28.924Z,99.99
2018-04-22T05:49:28.719Z,99.99
2018-04-22T05:50:28.727Z,99.99
2018-04-22T05:51:28.715Z,99.99
2018-04-22T05:52:28.924Z,99.99
2018-04-22T05:53:28.716Z,99.99
2018-04-22T05:54:28.724Z,99.99
2018-04-22T05:55:28.733Z,99.99
2018-04-22T05:56:28.743Z,99.99
2018-04-22T05:57:28.727Z,99.99
2018-04-22T05:58:28.922Z,99.99
2018-04-22T05:59:28.708Z,99.99
2018-04-22T06:00:28.718Z,99.99
2018-04-22T06:01:28.737Z,99.99
2018-04-22T06:02:28.712Z,99.99
2018-04-22T06:03:28.928Z,99.99
2018-04-22T06:04:28.716Z,99.99
2018-04-22T06:05:28.721Z,99.99
2018-04-22T06:06:28.706Z,99.99
2018-04-22T06:07:28.698Z,99.99
2018-04-22T06:08:28.710Z,99.99
2018-04-22T06:09:28.717Z,99.99
2018-04-22T06:10:28.709Z,99.99
2018-04-22T06:11:28.694Z,99.99
2018-04-22T06:12:28.896Z,99.99
2018-04-22T06:13:28.703Z,99.99
2018-04-22T06:14:28.704Z,99.99
2018-04-22T06:15:28.916Z,99.99
2018-04-22T06:16:28.693Z,99.99
2018-04-22T06:17:28.718Z,99.99
2018-04-22T06:18:28.712Z,99.99
2018-04-22T06:19:28.701Z,99.99
2018-04-22T06:20:28.699Z,99.99
2018-04-22T06:21:28.696Z,99.99
2018-04-22T06:22:28.709Z,99.99
2018-04-22T06:23:28.694Z,99.99
2018-04-22T06:24:28.683Z,99.99
2018-04-22T06:25:28.714Z,99.99
2018-04-22T06:26:28.693Z,99.99
2018-04-22T06:27:28.682Z,99.99
2018-04-22T06:28:28.679Z,99.99
2018-04-22T06:29:28.679Z,99.99
2018-04-22T06:30:28.691Z,99.99
2018-04-22T06:31:28.676Z,99.99
2018-04-22T06:32:28.678Z,99.99
2018-04-22T06:33:28.678Z,99.99
2018-04-22T06:34:28.684Z,99.99
2018-04-22T06:35:28.674Z,99.99
2018-04-22T06:36:28.676Z,99.99
2018-04-22T06:37:28.679Z,99.99
2018-04-22T06:38:28.695Z,99.99
2018-04-22T06:39:28.710Z,99.99
2018-04-22T06:40:28.712Z,99.99
2018-04-22T06:41:28.890Z,99.99
2018-04-22T06:42:28.688Z,99.99
2018-04-22T06:43:28.683Z,99.99
2018-04-22T06:44:28.686Z,99.99
2018-04-22T06:45:28.688Z,99.99
2018-04-22T06:46:28.705Z,99.99
2018-04-22T06:47:28.693Z,99.99
2018-04-22T06:48:28.674Z,99.99
2018-04-22T06:49:28.684Z,99.99
2018-04-22T06:50:28.674Z,99.99
2018-04-22T06:51:28.670Z,99.99
2018-04-22T06:52:28.684Z,99.99
2018-04-22T06:53:28.698Z,99.99
2018-04-22T06:54:28.668Z,99.99
2018-04-22T06:55:28.690Z,99.99
2018-04-22T06:56:28.687Z,99.98
2018-04-22T06:57:28.700Z,99.99
2018-04-22T06:58:28.673Z,99.99
2018-04-22T06:59:28.698Z,99.99
2018-04-22T07:00:28.672Z,98.14
2018-04-22T07:01:28.683Z,98.24
2018-04-22T07:02:28.682Z,96.51
2018-04-22T07:03:28.674Z,93.63
2018-04-22T07:04:28.675Z,92.33
2018-04-22T07:05:28.715Z,95.79
2018-04-22T07:06:28.903Z,96.47
2018-04-22T07:07:28.711Z,95.02
2018-04-22T07:08:28.697Z,94.92
2018-04-22T07:09:28.676Z,95.98
2018-04-22T07:10:28.688Z,94.35
2018-04-22T07:11:28.705Z,91.94
2018-04-22T07:12:28.679Z,95.89
2018-04-22T07:13:28.703Z,96.75
2018-04-22T07:14:28.691Z,92.33
2018-04-22T07:15:28.678Z,92.28
2018-04-22T07:16:28.894Z,92.08
2018-04-22T07:17:28.694Z,93.72
2018-04-22T07:18:28.694Z,91.99
2018-04-22T07:19:28.904Z,92.28
2018-04-22T07:20:28.885Z,92.66
2018-04-22T07:21:28.685Z,93.57
2018-04-22T07:22:28.693Z,89.43
2018-04-22T07:23:28.687Z,92.22
2018-04-22T07:24:28.688Z,89.86
2018-04-22T07:25:28.902Z,88.42
2018-04-22T07:26:28.686Z,89.96
2018-04-22T07:27:28.913Z,90.44
2018-04-22T07:28:28.690Z,92.41
2018-04-22T07:29:28.697Z,88.85
2018-04-22T07:30:28.689Z,85.33
2018-04-22T07:31:28.701Z,84.84
2018-04-22T07:32:28.690Z,86.96
2018-04-22T07:33:28.908Z,85.61
2018-04-22T07:34:28.692Z,83.69
2018-04-22T07:35:28.728Z,82.34
2018-04-22T07:36:28.716Z,84.07
2018-04-22T07:37:28.699Z,84.46
2018-04-22T07:38:28.695Z,84.36
2018-04-22T07:39:28.912Z,84.27
2018-04-22T07:40:28.702Z,84.27
2018-04-22T07:41:28.709Z,84.65
2018-04-22T07:42:28.736Z,83.30
2018-04-22T07:43:28.906Z,84.27
2018-04-22T07:44:28.712Z,82.72
2018-04-22T07:45:28.718Z,80.12
2018-04-22T07:46:28.706Z,80.99
2018-04-22T07:47:28.706Z,85.61
2018-04-22T07:48:28.723Z,81.85
2018-04-22T07:49:28.722Z,83.11
2018-04-22T07:50:28.708Z,81.18
2018-04-22T07:51:28.725Z,81.66
2018-04-22T07:52:28.711Z,82.72
2018-04-22T07:53:28.774Z,82.72
2018-04-22T07:54:28.714Z,83.88
2018-04-22T07:55:28.724Z,87.45
2018-04-22T07:56:28.727Z,83.59
2018-04-22T07:57:28.727Z,83.59
2018-04-22T07:58:28.732Z,84.94
2018-04-22T07:59:28.724Z,83.69
2018-04-22T08:00:28.721Z,82.43
2018-04-22T08:01:28.724Z,83.40
2018-04-22T08:02:28.724Z,85.52
2018-04-22T08:03:28.931Z,83.40
2018-04-22T08:04:28.777Z,82.34
2018-04-22T08:05:28.753Z,81.47
2018-04-22T08:06:28.731Z,82.14
2018-04-22T08:07:28.733Z,80.69
2018-04-22T08:08:28.746Z,82.34
2018-04-22T08:09:28.961Z,81.85
2018-04-22T08:10:28.747Z,82.96
2018-04-22T08:11:28.740Z,80.74
2018-04-22T08:12:28.752Z,83.34
2018-04-22T08:13:28.768Z,80.83
2018-04-22T08:14:28.742Z,79.49
2018-04-22T08:15:28.949Z,80.83
2018-04-22T08:16:28.748Z,78.81
2018-04-22T08:17:28.753Z,79.97
2018-04-22T08:18:28.760Z,79.49
2018-04-22T08:19:28.757Z,80.83
2018-04-22T08:20:28.972Z,77.30
2018-04-22T08:21:28.770Z,77.88
2018-04-22T08:22:28.965Z,82.13
2018-04-22T08:23:28.986Z,78.75
2018-04-22T08:24:28.773Z,78.27
2018-04-22T08:25:28.780Z,77.05
2018-04-22T08:26:28.980Z,76.86
2018-04-22T08:27:28.770Z,76.18
2018-04-22T08:28:28.801Z,76.47
2018-04-22T08:29:28.784Z,74.48
2018-04-22T08:30:28.785Z,77.19
2018-04-22T08:31:28.788Z,73.36
2018-04-22T08:32:28.985Z,76.35
2018-04-22T08:33:28.782Z,73.46
2018-04-22T08:34:29.002Z,71.62
2018-04-22T08:35:28.786Z,74.04
2018-04-22T08:36:29.013Z,72.39
2018-04-22T08:37:28.802Z,73.03
2018-04-22T08:38:28.998Z,73.42
2018-04-22T08:39:28.811Z,73.32
2018-04-22T08:40:29.014Z,75.20
2018-04-22T08:41:29.021Z,74.23
2018-04-22T08:42:28.812Z,70.84
2018-04-22T08:43:28.822Z,72.68
2018-04-22T08:44:28.811Z,76.84
2018-04-22T08:45:28.814Z,74.55
2018-04-22T08:46:28.815Z,71.36
2018-04-22T08:47:28.822Z,72.52
2018-04-22T08:48:28.854Z,78.23
2018-04-22T08:49:28.850Z,73.10
2018-04-22T08:50:28.843Z,73.04
2018-04-22T08:51:28.850Z,72.56
2018-04-22T08:52:29.076Z,72.27
2018-04-22T08:53:28.859Z,70.62
2018-04-22T08:54:29.078Z,70.53
2018-04-22T08:55:28.866Z,71.30
2018-04-22T08:56:28.896Z,70.95
2018-04-22T08:57:28.885Z,69.98
2018-04-22T08:58:28.870Z,70.01
2018-04-22T08:59:28.873Z,67.95
2018-04-22T09:00:28.891Z,66.44
2018-04-22T09:01:28.885Z,64.82
2018-04-22T09:02:28.888Z,64.43
2018-04-22T09:03:28.903Z,64.14
2018-04-22T09:04:28.920Z,64.14
2018-04-22T09:05:28.937Z,63.39
2018-04-22T09:06:28.901Z,64.78
2018-04-22T09:07:28.945Z,62.68
2018-04-22T09:08:28.920Z,59.86
2018-04-22T09:09:29.122Z,59.31
2018-04-22T09:10:28.917Z,58.62
2018-04-22T09:11:28.932Z,59.72
2018-04-22T09:12:28.928Z,58.20
2018-04-22T09:13:28.926Z,57.71
2018-04-22T09:14:28.945Z,58.65
2018-04-22T09:15:28.957Z,58.39
2018-04-22T09:16:28.975Z,58.46
2018-04-22T09:17:28.941Z,60.99
2018-04-22T09:18:28.951Z,62.32
2018-04-22T09:19:28.946Z,62.07
2018-04-22T09:20:28.948Z,63.68
2018-04-22T09:21:28.964Z,64.30
2018-04-22T09:22:28.969Z,65.14
2018-04-22T09:23:28.956Z,67.02
2018-04-22T09:24:28.984Z,71.04
2018-04-22T09:25:28.970Z,73.33
2018-04-22T09:26:28.966Z,76.97
2018-04-22T09:27:28.967Z,77.32
2018-04-22T09:28:28.981Z,77.61
2018-04-22T09:29:28.975Z,77.57
2018-04-22T09:30:28.987Z,80.08
2018-04-22T09:31:28.980Z,80.82
2018-04-22T09:32:28.994Z,79.75
2018-04-22T09:33:28.997Z,79.27
2018-04-22T09:34:28.984Z,80.78
2018-04-22T09:35:28.986Z,80.97
2018-04-22T09:36:28.990Z,81.84
2018-04-22T09:37:28.996Z,81.93
2018-04-22T09:38:29.012Z,83.09
2018-04-22T09:39:28.999Z,79.17
2018-04-22T09:40:29.004Z,80.38
2018-04-22T09:41:29.015Z,76.55
2018-04-22T09:42:29.004Z,72.49
2018-04-22T09:43:29.030Z,75.97
2018-04-22T09:44:29.022Z,77.57
2018-04-22T09:45:29.055Z,78.44
2018-04-22T09:46:29.028Z,78.25
2018-04-22T09:47:29.015Z,79.60
2018-04-22T09:48:29.034Z,80.95
2018-04-22T09:49:29.036Z,80.82
2018-04-22T09:50:29.025Z,77.57
2018-04-22T09:51:29.026Z,74.77
2018-04-22T09:52:29.028Z,75.48
2018-04-22T09:53:29.043Z,76.93
2018-04-22T09:54:29.058Z,76.93
2018-04-22T09:55:29.032Z,76.45
2018-04-22T09:56:29.043Z,79.50
2018-04-22T09:57:29.066Z,82.21
2018-04-22T09:58:29.054Z,83.66
2018-04-22T09:59:29.061Z,82.11
2018-04-22T10:00:29.062Z,85.55
2018-04-22T10:01:29.060Z,83.23
2018-04-22T10:02:29.066Z,82.07
2018-04-22T10:03:29.077Z,81.78
2018-04-22T10:04:29.072Z,77.73
2018-04-22T10:05:29.058Z,79.37
2018-04-22T10:06:29.074Z,80.87
2018-04-22T10:07:29.067Z,80.05
2018-04-22T10:08:29.080Z,82.42
2018-04-22T10:09:29.078Z,82.94
2018-04-22T10:10:29.083Z,83.29
2018-04-22T10:11:29.093Z,81.93
2018-04-22T10:12:29.096Z,83.00
2018-04-22T10:13:29.080Z,79.43
2018-04-22T10:14:29.078Z,78.17
2018-04-22T10:15:29.082Z,80.58
2018-04-22T10:16:29.130Z,82.07
2018-04-22T10:17:29.111Z,80.58
2018-04-22T10:18:29.098Z,81.45
2018-04-22T10:19:29.089Z,82.90
2018-04-22T10:20:29.091Z,82.71
2018-04-22T10:21:29.114Z,83.48
2018-04-22T10:22:29.107Z,85.70
2018-04-22T10:23:29.108Z,82.67
2018-04-22T10:24:29.099Z,84.21
2018-04-22T10:25:29.114Z,83.25
2018-04-22T10:26:29.120Z,84.89
2018-04-22T10:27:29.106Z,88.69
2018-04-22T10:28:29.127Z,85.27
2018-04-22T10:29:29.110Z,84.98
2018-04-22T10:30:29.123Z,85.02
2018-04-22T10:31:29.128Z,86.28
2018-04-22T10:32:29.140Z,83.67
2018-04-22T10:33:29.143Z,86.66
2018-04-22T10:34:29.135Z,87.92
2018-04-22T10:35:29.125Z,89.07
2018-04-22T10:36:29.135Z,89.95
2018-04-22T10:37:29.149Z,86.28
2018-04-22T10:38:29.141Z,88.89
2018-04-22T10:39:29.143Z,89.17
2018-04-22T10:40:29.147Z,87.15
2018-04-22T10:41:29.137Z,86.96
2018-04-22T10:42:29.146Z,85.60
2018-04-22T10:43:29.149Z,88.69
2018-04-22T10:44:29.141Z,86.66
2018-04-22T10:45:29.145Z,83.19
2018-04-22T10:46:29.352Z,85.06
2018-04-22T10:47:29.151Z,82.65
2018-04-22T10:48:29.162Z,81.59
2018-04-22T10:49:29.154Z,81.92
2018-04-22T10:50:29.165Z,78.73
2018-04-22T10:51:29.177Z,79.35
2018-04-22T10:52:29.160Z,77.32
2018-04-22T10:53:29.164Z,77.22
2018-04-22T10:54:29.171Z,75.43
2018-04-22T10:55:29.178Z,77.55
2018-04-22T10:56:29.168Z,72.52
2018-04-22T10:57:29.168Z,76.39
2018-04-22T10:58:29.205Z,78.03
2018-04-22T10:59:29.171Z,73.88
2018-04-22T11:00:29.190Z,72.72
2018-04-22T11:01:29.181Z,72.33
2018-04-22T11:02:29.178Z,73.20
2018-04-22T11:03:29.203Z,75.23
2018-04-22T11:04:29.184Z,71.17
2018-04-22T11:05:29.248Z,75.04
2018-04-22T11:06:29.185Z,78.81
2018-04-22T11:07:29.200Z,78.48
2018-04-22T11:08:29.208Z,81.96
2018-04-22T11:09:29.196Z,75.97
2018-04-22T11:10:29.204Z,75.48
2018-04-22T11:11:29.214Z,71.91
2018-04-22T11:12:29.408Z,75.20
2018-04-22T11:13:29.205Z,79.54
2018-04-22T11:14:29.408Z,80.99
2018-04-22T11:15:29.230Z,81.92
2018-04-22T11:16:29.226Z,80.66
2018-04-22T11:17:29.256Z,81.34
2018-04-22T11:18:29.215Z,81.05
2018-04-22T11:19:29.229Z,82.79
2018-04-22T11:20:29.231Z,82.75
2018-04-22T11:21:29.426Z,86.61
2018-04-22T11:22:29.235Z,82.94
2018-04-22T11:23:29.444Z,84.30
2018-04-22T11:24:29.239Z,84.16
2018-04-22T11:25:29.231Z,83.23
2018-04-22T11:26:29.234Z,85.41
2018-04-22T11:27:29.234Z,87.00
2018-04-22T11:28:29.236Z,84.54
2018-04-22T11:29:29.251Z,82.46
2018-04-22T11:30:29.242Z,84.00
2018-04-22T11:31:29.247Z,80.62
2018-04-22T11:32:29.247Z,89.79
2018-04-22T11:33:29.271Z,85.45
2018-04-22T11:34:29.249Z,80.82
2018-04-22T11:35:29.462Z,77.25
2018-04-22T11:36:29.267Z,81.11
2018-04-22T11:37:29.269Z,74.58
2018-04-22T11:38:29.269Z,72.97
2018-04-22T11:39:29.260Z,71.52
2018-04-22T11:40:29.273Z,75.97
2018-04-22T11:41:29.280Z,75.48
2018-04-22T11:42:29.270Z,78.67
2018-04-22T11:43:29.273Z,72.94
2018-04-22T11:44:29.301Z,75.64
2018-04-22T11:45:29.288Z,78.54
2018-04-22T11:46:29.302Z,76.47
2018-04-22T11:47:29.289Z,78.89
2018-04-22T11:48:29.310Z,79.85
2018-04-22T11:49:29.308Z,73.09
2018-04-22T11:50:29.287Z,78.69
2018-04-22T11:51:29.288Z,79.47
2018-04-22T11:52:29.289Z,72.84
2018-04-22T11:53:29.301Z,71.14
2018-04-22T11:54:29.307Z,72.39
2018-04-22T11:55:29.299Z,76.45
2018-04-22T11:56:29.302Z,72.52
2018-04-22T11:57:29.315Z,72.14
2018-04-22T11:58:29.304Z,72.91
2018-04-22T11:59:29.317Z,70.43
2018-04-22T12:00:29.319Z,70.82
2018-04-22T12:01:29.312Z,72.17
2018-04-22T12:02:29.348Z,73.01
2018-04-22T12:03:29.316Z,75.13
2018-04-22T12:04:29.329Z,76.59
2018-04-22T12:05:29.522Z,78.33
2018-04-22T12:06:29.339Z,77.61
2018-04-22T12:07:29.334Z,76.51
2018-04-22T12:08:29.324Z,72.30
2018-04-22T12:09:29.332Z,73.55
2018-04-22T12:10:29.341Z,73.07
2018-04-22T12:11:29.345Z,73.84
2018-04-22T12:12:29.351Z,74.87
2018-04-22T12:13:29.338Z,76.90
2018-04-22T12:14:29.356Z,74.58
2018-04-22T12:15:29.566Z,71.62
2018-04-22T12:16:29.357Z,73.07
2018-04-22T12:17:29.577Z,75.58
2018-04-22T12:18:29.363Z,73.46
2018-04-22T12:19:29.357Z,72.88
2018-04-22T12:20:29.393Z,74.58
2018-04-22T12:21:29.377Z,75.93
2018-04-22T12:22:29.369Z,75.74
2018-04-22T12:23:29.569Z,73.90
2018-04-22T12:24:29.364Z,76.90
2018-04-22T12:25:29.366Z,78.54
2018-04-22T12:26:29.390Z,80.28
2018-04-22T12:27:29.586Z,82.02
2018-04-22T12:28:29.387Z,80.28
2018-04-22T12:29:29.396Z,79.31
2018-04-22T12:30:29.390Z,81.82
2018-04-22T12:31:29.622Z,81.82
2018-04-22T12:32:29.398Z,77.76
2018-04-22T12:33:29.390Z,77.48
2018-04-22T12:34:29.402Z,78.25
2018-04-22T12:35:29.413Z,79.70
2018-04-22T12:36:29.400Z,79.70
2018-04-22T12:37:29.397Z,77.76
2018-04-22T12:38:29.409Z,78.00
2018-04-22T12:39:29.402Z,75.74
2018-04-22T12:40:29.402Z,78.96
2018-04-22T12:41:29.403Z,77.61
2018-04-22T12:42:29.430Z,77.61
2018-04-22T12:43:29.410Z,76.03
2018-04-22T12:44:29.412Z,79.41
2018-04-22T12:45:29.617Z,83.56
2018-04-22T12:46:29.437Z,84.53
2018-04-22T12:47:29.418Z,84.63
2018-04-22T12:48:29.625Z,83.85
2018-04-22T12:49:29.436Z,84.88
2018-04-22T12:50:29.437Z,85.59
2018-04-22T12:51:29.439Z,85.36
2018-04-22T12:52:29.467Z,89.31